EDT,Max TemperatureF,Mean TemperatureF,Min TemperatureF,Max Dew PointF,MeanDew PointF,Min DewpointF,Max Humidity, Mean Humidity, Min Humidity, Max Sea Level PressureIn, Mean Sea Level PressureIn, Min Sea Level PressureIn, Max VisibilityMiles, Mean VisibilityMiles, Min VisibilityMiles, Max Wind SpeedMPH, Mean Wind SpeedMPH, Max Gust SpeedMPH,PrecipitationIn, CloudCover, Events, WindDirDegrees
2012-6-1,59,55,50,54,49,45,96,84,71,29.83,29.70,29.61,10,8,2,30,12,66,0.01,7,Rain,306
2012-6-2,71,60,49,48,44,39,86,61,35,29.85,29.81,29.78,10,10,10,22,11,33,T,2,,238
2012-6-3,79,66,53,53,48,42,89,59,28,29.87,29.83,29.81,10,10,7,18,9,25,0.00,1,,267
2012-6-4,80,70,59,52,46,41,75,50,25,29.86,29.81,29.77,10,10,10,20,8,24,0.00,1,,335
2012-6-5,69,59,49,54,48,42,89,66,42,29.98,29.94,29.86,10,10,5,21,8,26,0.01,3,Rain,45
2012-6-6,76,61,46,48,44,40,86,58,29,30.06,30.02,29.99,10,10,10,17,6,22,0.00,1,,45
2012-6-7,82,66,50,51,45,40,83,53,23,30.10,30.07,30.02,10,10,10,14,4,20,0.00,0,,337
2012-6-8,84,68,52,50,44,38,83,52,20,30.09,30.03,29.96,10,10,10,14,3,17,0.00,0,,301
2012-6-9,86,74,62,51,47,44,60,42,23,30.02,29.97,29.92,10,10,10,14,6,20,0.00,0,,219
2012-6-10,89,75,60,59,54,49,78,54,29,30.02,29.98,29.95,10,10,10,18,6,26,0.00,1,,169
2012-6-11,81,76,71,70,65,58,74,64,54,29.97,29.92,29.83,10,9,0,14,7,21,0.67,5,Rain,188
2012-6-12,80,69,57,67,55,40,93,60,26,30.08,29.94,29.86,10,10,6,21,10,28,0.00,0,,301
2012-6-13,77,65,52,52,44,36,77,51,25,30.17,30.12,30.08,10,10,10,17,7,20,0.00,0,,54
2012-6-14,83,67,51,46,42,37,71,46,20,30.16,30.11,30.06,10,10,5,14,5,17,0.00,0,,112
2012-6-15,89,72,54,53,49,45,77,50,22,30.13,30.09,30.06,10,10,10,13,4,16,0.00,0,,128
2012-6-16,91,80,69,67,62,54,78,54,30,30.13,30.04,29.95,10,10,9,16,7,22,0.00,0,Thunderstorm,189
2012-6-17,86,78,69,66,62,58,79,60,40,29.96,29.90,29.83,10,10,10,18,8,23,0.00,2,,259
2012-6-18,91,81,71,66,62,56,84,57,30,29.92,29.86,29.82,10,10,9,21,10,29,0.00,0,,214
2012-6-19,92,82,71,62,60,56,68,50,32,30.06,30.01,29.94,10,10,10,20,10,26,0.00,0,,224
2012-6-20,92,82,72,61,58,53,68,48,28,30.12,30.05,29.98,10,10,10,17,9,23,0.00,0,,207
2012-6-21,92,79,66,69,61,56,93,63,32,30.01,29.94,29.83,10,10,9,26,9,39,0.01,2,Rain,249
2012-6-22,85,72,58,64,55,46,97,62,27,29.99,29.96,29.92,10,8,1,15,4,21,0.00,0,,309
2012-6-23,87,71,54,55,51,45,86,56,25,30.03,30.00,29.97,10,10,10,9,2,25,0.00,0,,347
2012-6-24,91,77,63,57,54,50,73,50,26,30.05,29.96,29.89,10,10,2,15,6,18,0.00,2,,265
2012-6-25,82,70,58,60,50,36,70,45,20,30.00,29.94,29.88,10,10,10,21,10,28,0.00,1,,27
2012-6-26,80,65,50,47,44,40,80,53,25,30.07,30.01,29.95,10,10,10,16,5,22,0.00,0,,86
2012-6-27,88,72,55,51,45,40,72,46,20,30.04,29.96,29.87,10,10,10,15,7,25,0.00,0,,198
2012-6-28,106,90,74,69,58,50,55,39,23,29.88,29.82,29.74,10,10,10,22,12,28,0.00,0,,251
2012-6-29,98,82,66,72,65,57,90,68,45,29.97,29.87,29.80,10,9,0,40,5,53,0.78,3,Fog-Rain-Thunderstorm,308
2012-6-30,89,79,68,69,66,62,90,68,46,29.93,29.86,29.81,10,10,8,25,6,36,0.16,1,Rain-Thunderstorm,276